Time;durP1;ratioP1;P1;durP2;ratioP2;P2;SDS_P1;SDS_P2;PMS_P1;PMS_P2;Temp;Humidity;BMP_temperature;BMP_pressure;BME280_temperature;BME280_humidity;BME280_pressure;Samples;Min_cycle;Max_cycle;Signal;HPM_P1;HPM_P2
2022/06/03 00:01:49;;;;;;;3.03;1.73;;;;;;;;;;5016539;28;20069;-64
2022/06/03 00:04:25;;;;;;;4.85;1.70;;;;;;;;;;5017444;28;20087;-62
2022/06/03 00:06:58;;;;;;;3.53;1.80;;;;;;;;;;5027642;28;20144;-64
2022/06/03 00:09:35;;;;;;;2.65;1.40;;;;;;;;;;5029227;28;20079;-63
2022/06/03 00:12:19;;;;;;;3.88;1.50;;;;;;;;;;5026657;28;20126;-63
2022/06/03 00:15:00;;;;;;;4.07;1.75;;;;;;;;;;5025312;28;20050;-63
2022/06/03 00:17:37;;;;;;;2.88;1.63;;;;;;;;;;5024899;28;20041;-64
2022/06/03 00:20:11;;;;;;;4.22;1.98;;;;;;;;;;5027567;28;20058;-63
2022/06/03 00:22:56;;;;;;;4.65;1.50;;;;;;;;;;4997508;28;20129;-63
2022/06/03 00:25:36;;;;;;;3.90;1.75;;;;;;;;;;4988317;28;20066;-63
2022/06/03 00:28:11;;;;;;;6.55;1.80;;;;;;;;;;4999050;28;20058;-64
2022/06/03 00:30:48;;;;;;;3.67;1.73;;;;;;;;;;4999659;28;20061;-66
2022/06/03 00:33:28;;;;;;;1.98;1.33;;;;;;;;;;5002062;28;20053;-62
2022/06/03 00:36:01;;;;;;;4.28;1.90;;;;;;;;;;5008317;28;20061;-64
2022/06/03 00:38:34;;;;;;;3.15;1.60;;;;;;;;;;5001699;28;20318;-63
2022/06/03 00:41:15;;;;;;;4.63;2.30;;;;;;;;;;5007571;28;20050;-63
2022/06/03 00:43:57;;;;;;;3.80;1.65;;;;;;;;;;5001089;28;20050;-62
2022/06/03 00:46:43;;;;;;;3.00;1.80;;;;;;;;;;5007984;28;20128;-63
2022/06/03 00:49:18;;;;;;;3.10;1.98;;;;;;;;;;5001129;28;20081;-63
2022/06/03 00:52:00;;;;;;;3.53;1.52;;;;;;;;;;5022589;28;20150;-62
2022/06/03 00:54:34;;;;;;;2.55;1.38;;;;;;;;;;5002380;28;20137;-65
2022/06/03 00:57:09;;;;;;;3.20;1.63;;;;;;;;;;5004696;28;20141;-64
2022/06/03 00:59:43;;;;;;;3.95;2.03;;;;;;;;;;4988778;28;20069;-63
2022/06/03 01:02:20;;;;;;;3.50;1.60;;;;;;;;;;5005162;28;20058;-65
2022/06/03 01:04:56;;;;;;;3.80;2.00;;;;;;;;;;5008038;28;20050;-63
2022/06/03 01:07:27;;;;;;;4.18;1.80;;;;;;;;;;5000951;28;20136;-67
2022/06/03 01:10:05;;;;;;;2.60;1.73;;;;;;;;;;5007082;28;20054;-64
2022/06/03 01:12:50;;;;;;;6.10;1.90;;;;;;;;;;5001553;28;20125;-63
2022/06/03 01:15:28;;;;;;;5.05;2.10;;;;;;;;;;4994993;28;20060;-63
2022/06/03 01:18:01;;;;;;;3.05;1.65;;;;;;;;;;4997743;28;20085;-66
2022/06/03 01:20:36;;;;;;;4.70;2.08;;;;;;;;;;5007407;28;20050;-67
2022/06/03 01:23:19;;;;;;;3.00;1.70;;;;;;;;;;4999717;28;20050;-66
2022/06/03 01:26:09;;;;;;;2.92;1.50;;;;;;;;;;5006658;28;20052;-67
2022/06/03 01:28:53;;;;;;;4.32;1.90;;;;;;;;;;5001311;28;20058;-65
2022/06/03 01:31:34;;;;;;;4.20;2.05;;;;;;;;;;5006943;28;20055;-66
2022/06/03 01:34:12;;;;;;;4.05;1.75;;;;;;;;;;4993932;28;20113;-66
2022/06/03 01:36:59;;;;;;;3.00;1.50;;;;;;;;;;4991468;28;20066;-65
2022/06/03 01:39:44;;;;;;;4.40;1.77;;;;;;;;;;5000243;28;20053;-64
2022/06/03 01:42:36;;;;;;;4.25;2.08;;;;;;;;;;5027828;28;20119;-63
2022/06/03 01:45:12;;;;;;;5.68;2.15;;;;;;;;;;4987627;28;20050;-66
2022/06/03 01:47:59;;;;;;;3.33;1.63;;;;;;;;;;5010214;28;20115;-63
2022/06/03 01:50:33;;;;;;;4.10;2.10;;;;;;;;;;5015701;28;20120;-63
2022/06/03 01:53:25;;;;;;;4.82;1.90;;;;;;;;;;5030227;28;20053;-67
2022/06/03 01:56:01;;;;;;;4.88;2.10;;;;;;;;;;4976858;28;20121;-66
2022/06/03 01:58:48;;;;;;;3.47;1.98;;;;;;;;;;5030922;28;20081;-63
2022/06/03 02:01:28;;;;;;;3.95;1.92;;;;;;;;;;5026490;28;20042;-68
2022/06/03 02:04:11;;;;;;;3.35;1.67;;;;;;;;;;5023528;28;20092;-66
2022/06/03 02:06:56;;;;;;;3.63;1.60;;;;;;;;;;5007361;28;20054;-68
2022/06/03 02:09:53;;;;;;;3.38;1.75;;;;;;;;;;5008626;28;20087;-62
2022/06/03 02:12:51;;;;;;;4.35;1.90;;;;;;;;;;5030017;28;20128;-66
2022/06/03 02:15:41;;;;;;;3.55;1.85;;;;;;;;;;4967189;28;20050;-63
2022/06/03 02:18:22;;;;;;;6.43;2.15;;;;;;;;;;4956904;28;20051;-67
2022/06/03 02:21:02;;;;;;;4.60;2.05;;;;;;;;;;4984376;28;20136;-64
2022/06/03 02:23:47;;;;;;;6.80;2.33;;;;;;;;;;5028428;28;20103;-64
2022/06/03 02:26:31;;;;;;;4.10;2.10;;;;;;;;;;5010530;28;20062;-66
2022/06/03 02:32:03;;;;;;;8.95;2.28;;;;;;;;;;5039257;28;20064;-66
2022/06/03 02:34:52;;;;;;;2.33;1.45;;;;;;;;;;5030040;28;20064;-65
2022/06/03 02:37:49;;;;;;;3.20;1.88;;;;;;;;;;5026085;28;20099;-65
2022/06/03 02:40:34;;;;;;;2.75;1.70;;;;;;;;;;5024089;28;20073;-67
2022/06/03 02:43:20;;;;;;;3.65;1.55;;;;;;;;;;5009229;28;20054;-63
2022/06/03 02:46:07;;;;;;;3.65;1.70;;;;;;;;;;5008138;28;20053;-63
2022/06/03 02:48:51;;;;;;;5.33;2.20;;;;;;;;;;5024374;28;20111;-63
2022/06/03 02:51:25;;;;;;;4.55;1.75;;;;;;;;;;5023265;28;20108;-65
2022/06/03 02:54:16;;;;;;;2.80;1.60;;;;;;;;;;5028944;28;20057;-65
2022/06/03 02:56:51;;;;;;;5.15;2.20;;;;;;;;;;5014709;28;20126;-66
2022/06/03 02:59:26;;;;;;;4.05;1.63;;;;;;;;;;5009341;28;20058;-63
2022/06/03 03:02:00;;;;;;;4.13;1.95;;;;;;;;;;5003875;28;20082;-64
2022/06/03 03:04:42;;;;;;;2.67;1.70;;;;;;;;;;5009728;28;20141;-66
2022/06/03 03:07:24;;;;;;;3.58;1.80;;;;;;;;;;5011428;28;20091;-67
2022/06/03 03:10:01;;;;;;;3.72;1.67;;;;;;;;;;5028723;28;20050;-67
2022/06/03 03:12:55;;;;;;;4.57;1.70;;;;;;;;;;5023128;28;20156;-64
2022/06/03 03:15:36;;;;;;;4.45;1.80;;;;;;;;;;5028882;28;20056;-65
2022/06/03 03:18:30;;;;;;;5.72;1.67;;;;;;;;;;5020257;28;20045;-64
2022/06/03 03:21:22;;;;;;;3.42;1.70;;;;;;;;;;5028214;28;20057;-64
2022/06/03 03:24:07;;;;;;;7.45;1.73;;;;;;;;;;5022027;28;20057;-65
2022/06/03 03:26:42;;;;;;;3.17;1.75;;;;;;;;;;5026348;28;20045;-63
2022/06/03 03:29:23;;;;;;;3.05;1.85;;;;;;;;;;5022831;28;20054;-63
2022/06/03 03:31:56;;;;;;;3.30;1.67;;;;;;;;;;5019793;28;20108;-64
2022/06/03 03:34:43;;;;;;;3.55;1.80;;;;;;;;;;5022526;28;20161;-62
2022/06/03 03:37:18;;;;;;;3.72;1.92;;;;;;;;;;5028398;28;20195;-64
2022/06/03 03:39:59;;;;;;;2.75;1.70;;;;;;;;;;5023944;28;20053;-63
2022/06/03 03:43:00;;;;;;;3.88;1.95;;;;;;;;;;5028371;28;20050;-66
2022/06/03 03:45:36;;;;;;;3.15;1.58;;;;;;;;;;5024638;28;20072;-65
2022/06/03 03:48:21;;;;;;;7.78;1.52;;;;;;;;;;5019847;28;20064;-65
2022/06/03 03:50:56;;;;;;;3.85;1.52;;;;;;;;;;5026458;28;20110;-65
2022/06/03 03:53:42;;;;;;;3.40;1.73;;;;;;;;;;5022196;28;20072;-65
2022/06/03 03:56:42;;;;;;;4.93;1.85;;;;;;;;;;5024437;28;20096;-65
2022/06/03 03:59:36;;;;;;;3.58;1.85;;;;;;;;;;5033847;28;20081;-62
2022/06/03 04:02:20;;;;;;;2.40;1.45;;;;;;;;;;5008654;28;20058;-63
2022/06/03 04:05:05;;;;;;;2.78;1.65;;;;;;;;;;4983388;28;20050;-65
2022/06/03 04:07:55;;;;;;;4.72;2.30;;;;;;;;;;5004676;28;20046;-66
2022/06/03 04:10:39;;;;;;;4.40;2.00;;;;;;;;;;5017571;28;20077;-63
2022/06/03 04:13:28;;;;;;;4.78;2.05;;;;;;;;;;5029061;28;20066;-66
2022/06/03 04:15:54;;;;;;;;;;;;;;;;;;5023666;28;20053;-64
2022/06/03 04:18:42;;;;;;;4.47;1.98;;;;;;;;;;5010340;28;19929;-64
2022/06/03 04:21:31;;;;;;;3.15;1.60;;;;;;;;;;5034224;28;20144;-66
2022/06/03 04:24:17;;;;;;;4.03;1.92;;;;;;;;;;5021585;28;20041;-62
2022/06/03 04:26:51;;;;;;;4.05;2.00;;;;;;;;;;5026963;28;20060;-64
2022/06/03 04:29:39;;;;;;;4.60;2.10;;;;;;;;;;5027839;28;20103;-62
2022/06/03 04:32:20;;;;;;;4.60;1.87;;;;;;;;;;5007160;28;20070;-63
2022/06/03 04:35:06;;;;;;;3.63;1.70;;;;;;;;;;5000803;28;20386;-65
2022/06/03 04:37:51;;;;;;;3.35;2.00;;;;;;;;;;5024216;28;20058;-64
2022/06/03 04:40:32;;;;;;;4.30;1.75;;;;;;;;;;5006760;28;20057;-66
2022/06/03 04:43:17;;;;;;;3.10;1.65;;;;;;;;;;5027165;28;20060;-65
2022/06/03 04:46:02;;;;;;;2.50;1.45;;;;;;;;;;5016223;28;20052;-66
2022/06/03 04:48:43;;;;;;;2.92;1.60;;;;;;;;;;5005703;28;20057;-67
2022/06/03 04:51:28;;;;;;;3.97;1.85;;;;;;;;;;4986664;28;20081;-66
2022/06/03 04:54:13;;;;;;;3.30;1.73;;;;;;;;;;4968566;28;20046;-62
2022/06/03 04:57:04;;;;;;;4.47;1.67;;;;;;;;;;5010049;28;20068;-63
2022/06/03 04:59:45;;;;;;;4.22;1.73;;;;;;;;;;4969235;28;20093;-62
2022/06/03 05:02:42;;;;;;;5.15;1.92;;;;;;;;;;5013618;28;20054;-63
2022/06/03 05:05:24;;;;;;;4.72;2.15;;;;;;;;;;5023714;28;20054;-62
2022/06/03 05:08:09;;;;;;;2.67;1.58;;;;;;;;;;5013598;28;20060;-63
2022/06/03 05:10:56;;;;;;;4.82;1.80;;;;;;;;;;5023399;28;20194;-62
2022/06/03 05:13:55;;;;;;;3.67;1.90;;;;;;;;;;5018326;28;20076;-63
2022/06/03 05:16:51;;;;;;;4.32;2.08;;;;;;;;;;5017339;28;20141;-63
2022/06/03 05:19:37;;;;;;;5.10;2.47;;;;;;;;;;5023027;28;20080;-62
2022/06/03 05:22:18;;;;;;;3.08;1.70;;;;;;;;;;5021349;28;20050;-66
2022/06/03 05:25:09;;;;;;;7.65;2.25;;;;;;;;;;5022092;28;20053;-63
2022/06/03 05:28:09;;;;;;;4.13;2.15;;;;;;;;;;5016225;28;20149;-63
2022/06/03 05:30:59;;;;;;;4.20;2.10;;;;;;;;;;4929678;28;20055;-62
2022/06/03 05:33:43;;;;;;;3.10;1.77;;;;;;;;;;4910085;28;20161;-64
2022/06/03 05:36:33;;;;;;;3.65;1.60;;;;;;;;;;5001018;28;20057;-64
2022/06/03 05:39:27;;;;;;;7.60;2.33;;;;;;;;;;5018876;28;20131;-65
2022/06/03 05:45:15;;;;;;;3.80;1.77;;;;;;;;;;5042967;28;20050;-62
2022/06/03 05:47:43;;;;;;;4.15;2.15;;;;;;;;;;5021351;28;20053;-62
2022/06/03 05:50:13;;;;;;;3.80;1.85;;;;;;;;;;5026373;28;20049;-62
2022/06/03 05:52:43;;;;;;;4.78;2.10;;;;;;;;;;5022621;28;20058;-63
2022/06/03 05:55:24;;;;;;;3.15;1.60;;;;;;;;;;5027385;28;20064;-65
2022/06/03 05:58:05;;;;;;;3.35;1.95;;;;;;;;;;5004458;28;20085;-65
2022/06/03 06:00:40;;;;;;;4.65;2.00;;;;;;;;;;5026579;28;20073;-63
2022/06/03 06:03:17;;;;;;;3.97;1.70;;;;;;;;;;5021174;28;20061;-63
2022/06/03 06:05:49;;;;;;;3.45;1.73;;;;;;;;;;5013965;28;20053;-62
2022/06/03 06:08:21;;;;;;;3.88;2.17;;;;;;;;;;5010579;28;20058;-62
2022/06/03 06:10:52;;;;;;;5.55;2.10;;;;;;;;;;5029900;28;20128;-63
2022/06/03 06:13:28;;;;;;;5.75;1.80;;;;;;;;;;5026742;28;20049;-62
2022/06/03 06:16:06;;;;;;;5.90;1.98;;;;;;;;;;5011071;28;20115;-62
2022/06/03 06:18:44;;;;;;;3.65;1.65;;;;;;;;;;5011069;28;20154;-63
2022/06/03 06:21:24;;;;;;;3.95;2.10;;;;;;;;;;5010372;28;20090;-63
2022/06/03 06:23:56;;;;;;;6.13;2.08;;;;;;;;;;5019819;28;20076;-63
2022/06/03 06:26:32;;;;;;;5.28;2.15;;;;;;;;;;5010741;28;20049;-62
2022/06/03 06:29:13;;;;;;;6.75;2.10;;;;;;;;;;5019317;28;20049;-64
2022/06/03 06:31:51;;;;;;;2.75;1.52;;;;;;;;;;4993766;28;20164;-65
2022/06/03 06:34:29;;;;;;;2.70;1.73;;;;;;;;;;5006500;28;20057;-64
2022/06/03 06:37:13;;;;;;;3.95;1.98;;;;;;;;;;5029987;28;20304;-65
2022/06/03 06:39:50;;;;;;;3.83;1.80;;;;;;;;;;5022280;28;20135;-63
2022/06/03 06:42:20;;;;;;;3.33;1.83;;;;;;;;;;5029422;28;20224;-63
2022/06/03 06:44:53;;;;;;;2.78;1.80;;;;;;;;;;5023932;28;20060;-63
2022/06/03 06:47:23;;;;;;;4.03;1.73;;;;;;;;;;5029430;28;20110;-62
2022/06/03 06:49:55;;;;;;;5.90;2.35;;;;;;;;;;5026387;28;20053;-64
2022/06/03 06:52:41;;;;;;;26.08;4.72;;;;;;;;;;5028657;28;20061;-62
2022/06/03 06:55:15;;;;;;;6.75;2.65;;;;;;;;;;5024161;28;20103;-63
2022/06/03 06:57:44;;;;;;;8.10;2.20;;;;;;;;;;5010084;28;20085;-63
2022/06/03 07:00:16;;;;;;;7.70;2.20;;;;;;;;;;5009374;28;20061;-63
2022/06/03 07:02:47;;;;;;;3.70;1.77;;;;;;;;;;5027471;28;20060;-63
2022/06/03 07:05:17;;;;;;;9.25;2.33;;;;;;;;;;5021719;28;20057;-63
2022/06/03 07:07:46;;;;;;;6.95;2.17;;;;;;;;;;5021516;28;20141;-63
2022/06/03 07:10:18;;;;;;;6.68;2.47;;;;;;;;;;5028090;28;20061;-63
2022/06/03 07:12:49;;;;;;;8.25;2.55;;;;;;;;;;5016580;28;20057;-63
2022/06/03 07:15:21;;;;;;;8.68;2.65;;;;;;;;;;5042359;28;20060;-63
2022/06/03 07:20:42;;;;;;;10.93;2.55;;;;;;;;;;5024817;28;20144;-64
2022/06/03 07:23:12;;;;;;;5.20;1.95;;;;;;;;;;5012169;28;20050;-63
2022/06/03 07:25:45;;;;;;;5.90;2.17;;;;;;;;;;5024664;28;20049;-64
2022/06/03 07:28:19;;;;;;;7.47;2.08;;;;;;;;;;5015649;28;20077;-64
2022/06/03 07:30:49;;;;;;;6.25;2.47;;;;;;;;;;5023943;28;20060;-63
2022/06/03 07:33:21;;;;;;;4.78;1.85;;;;;;;;;;5021062;28;20060;-64
2022/06/03 07:35:51;;;;;;;8.90;2.33;;;;;;;;;;5040389;28;20089;-65
2022/06/03 07:38:21;;;;;;;4.60;1.90;;;;;;;;;;5026038;28;20091;-64
2022/06/03 07:40:51;;;;;;;6.28;2.15;;;;;;;;;;5013506;28;20056;-63
2022/06/03 07:43:21;;;;;;;5.72;2.00;;;;;;;;;;5023438;28;20103;-63
2022/06/03 07:45:50;;;;;;;8.63;2.28;;;;;;;;;;5015594;28;20053;-64
2022/06/03 07:48:20;;;;;;;5.53;1.58;;;;;;;;;;5023396;28;20045;-65
2022/06/03 07:50:52;;;;;;;10.25;2.75;;;;;;;;;;5014992;28;20058;-63
2022/06/03 07:53:21;;;;;;;4.13;1.60;;;;;;;;;;5024365;28;20049;-63
2022/06/03 07:55:47;;;;;;;;;;;;;;;;;;5020199;28;20050;-64
2022/06/03 07:58:17;;;;;;;3.95;1.70;;;;;;;;;;5040323;28;19925;-63
2022/06/03 08:00:45;;;;;;;7.97;2.35;;;;;;;;;;5023181;28;20060;-64
2022/06/03 08:03:14;;;;;;;4.75;2.25;;;;;;;;;;5026937;28;20049;-64
2022/06/03 08:05:41;;;;;;;5.18;1.60;;;;;;;;;;5006078;28;20055;-65
2022/06/03 08:11:00;;;;;;;11.35;3.10;;;;;;;;;;5039799;28;20059;-64
2022/06/03 08:13:46;;;;;;;6.75;2.35;;;;;;;;;;5013311;28;20053;-63
2022/06/03 08:16:16;;;;;;;4.28;1.73;;;;;;;;;;5012290;28;20049;-65
2022/06/03 08:18:43;;;;;;;6.82;2.22;;;;;;;;;;5014072;28;20057;-63
2022/06/03 08:21:12;;;;;;;12.80;3.00;;;;;;;;;;5022079;28;20055;-63
2022/06/03 08:23:40;;;;;;;16.25;4.00;;;;;;;;;;5013730;28;20140;-63
2022/06/03 08:26:08;;;;;;;12.68;3.63;;;;;;;;;;5021768;28;20081;-64
2022/06/03 08:28:37;;;;;;;16.65;3.83;;;;;;;;;;5022744;28;20068;-63
2022/06/03 08:31:06;;;;;;;6.75;2.42;;;;;;;;;;5013454;28;20049;-63
2022/06/03 08:33:39;;;;;;;7.85;2.38;;;;;;;;;;5023206;28;20053;-63
2022/06/03 08:36:06;;;;;;;10.30;2.67;;;;;;;;;;5013918;28;20064;-64
2022/06/03 08:38:34;;;;;;;16.08;3.10;;;;;;;;;;5023185;28;20061;-64
2022/06/03 08:41:07;;;;;;;34.15;4.55;;;;;;;;;;5013893;28;20064;-64
2022/06/03 08:43:55;;;;;;;22.52;6.82;;;;;;;;;;5022816;28;20041;-64
2022/06/03 08:46:25;;;;;;;6.07;2.20;;;;;;;;;;5012759;28;20106;-67
2022/06/03 08:48:53;;;;;;;8.68;2.17;;;;;;;;;;5025245;28;20077;-66
2022/06/03 08:51:23;;;;;;;5.13;1.87;;;;;;;;;;5019413;28;20089;-66
2022/06/03 08:53:53;;;;;;;9.25;2.58;;;;;;;;;;5018916;28;20304;-66
2022/06/03 08:56:23;;;;;;;8.00;2.70;;;;;;;;;;5022112;28;20123;-66
2022/06/03 08:58:53;;;;;;;9.93;2.50;;;;;;;;;;5020903;28;20049;-67
2022/06/03 09:01:24;;;;;;;2.45;1.50;;;;;;;;;;5021743;28;20065;-65
2022/06/03 09:03:54;;;;;;;5.70;1.58;;;;;;;;;;5024894;28;20083;-66
2022/06/03 09:06:31;;;;;;;5.30;1.88;;;;;;;;;;5021465;28;20056;-66
2022/06/03 09:09:01;;;;;;;7.93;1.52;;;;;;;;;;5012806;28;20144;-66
2022/06/03 09:11:33;;;;;;;8.35;1.88;;;;;;;;;;5023191;28;20053;-66
2022/06/03 09:14:03;;;;;;;6.47;1.83;;;;;;;;;;5017155;28;20086;-65
2022/06/03 09:16:30;;;;;;;4.78;1.70;;;;;;;;;;5020547;28;20171;-64
2022/06/03 09:18:59;;;;;;;15.13;3.65;;;;;;;;;;5021940;28;20057;-63
2022/06/03 09:21:28;;;;;;;5.18;1.65;;;;;;;;;;5010296;28;20117;-64
2022/06/03 09:23:55;;;;;;;;;;;;;;;;;;5023937;28;20049;-64
2022/06/03 09:26:25;;;;;;;7.88;2.58;;;;;;;;;;5012645;28;19976;-64
2022/06/03 09:28:53;;;;;;;3.63;1.63;;;;;;;;;;5019462;28;20084;-64
2022/06/03 09:31:21;;;;;;;3.43;1.57;;;;;;;;;;5014445;28;20054;-64
2022/06/03 09:33:49;;;;;;;6.57;2.10;;;;;;;;;;5023422;28;20296;-65
2022/06/03 09:36:19;;;;;;;10.27;2.23;;;;;;;;;;5019123;28;20144;-65
2022/06/03 09:38:49;;;;;;;5.95;1.80;;;;;;;;;;5018148;28;20144;-64
2022/06/03 09:41:16;;;;;;;4.75;1.50;;;;;;;;;;5020252;28;20110;-64
2022/06/03 09:43:44;;;;;;;3.75;1.60;;;;;;;;;;5011176;28;20057;-64
2022/06/03 09:46:12;;;;;;;8.15;2.28;;;;;;;;;;5040773;28;20120;-65
2022/06/03 09:48:41;;;;;;;5.00;1.63;;;;;;;;;;5013195;28;20057;-65
2022/06/03 09:51:09;;;;;;;5.18;1.92;;;;;;;;;;5025989;28;20061;-64
2022/06/03 09:53:42;;;;;;;6.60;1.80;;;;;;;;;;5016637;28;20053;-67
2022/06/03 09:56:17;;;;;;;4.70;1.77;;;;;;;;;;5026065;28;20053;-64
2022/06/03 09:58:44;;;;;;;4.43;1.70;;;;;;;;;;5021740;28;20057;-67
2022/06/03 10:01:11;;;;;;;6.38;1.95;;;;;;;;;;5022180;28;20054;-64
2022/06/03 10:03:38;;;;;;;2.08;1.20;;;;;;;;;;5026361;28;20061;-64
2022/06/03 10:06:05;;;;;;;3.10;1.42;;;;;;;;;;5015639;28;20049;-67
2022/06/03 10:12:48;;;;;;;4.78;1.42;;;;;;;;;;5025327;28;20061;-68
2022/06/03 10:14:07;;;;;;;4.93;1.58;;;;;;;;;;5025751;28;20049;-64
2022/06/03 10:16:34;;;;;;;4.82;1.60;;;;;;;;;;5016496;28;20045;-65
2022/06/03 10:19:00;;;;;;;3.47;1.40;;;;;;;;;;5025258;28;20100;-66
2022/06/03 10:21:31;;;;;;;4.10;1.27;;;;;;;;;;5019501;28;20050;-65
2022/06/03 10:24:00;;;;;;;3.92;1.40;;;;;;;;;;5024459;28;20088;-65
2022/06/03 10:26:29;;;;;;;4.75;1.02;;;;;;;;;;5022444;28;20050;-66
2022/06/03 10:28:56;;;;;;;5.38;1.48;;;;;;;;;;5023986;28;20057;-67
2022/06/03 10:31:28;;;;;;;1.70;1.00;;;;;;;;;;5023955;28;20065;-68
2022/06/03 10:33:56;;;;;;;3.10;1.27;;;;;;;;;;5024882;28;20124;-66
2022/06/03 10:36:24;;;;;;;2.27;1.10;;;;;;;;;;5043567;28;20156;-67
2022/06/03 10:38:51;;;;;;;7.80;1.40;;;;;;;;;;5019442;28;20301;-67
2022/06/03 10:41:20;;;;;;;1.35;1.02;;;;;;;;;;5025556;28;20053;-66
2022/06/03 10:43:50;;;;;;;3.25;1.42;;;;;;;;;;5016904;28;20064;-66
2022/06/03 10:46:19;;;;;;;1.80;1.25;;;;;;;;;;5025269;28;20049;-66
2022/06/03 10:48:45;;;;;;;;;;;;;;;;;;5020666;28;20131;-66
2022/06/03 10:51:17;;;;;;;1.98;1.10;;;;;;;;;;5024299;28;20119;-67
2022/06/03 11:02:15;;;;;;;2.22;1.20;;;;;;;;;;4933443;28;20054;-68
2022/06/03 11:04:45;;;;;;;1.77;1.25;;;;;;;;;;4999600;28;20049;-67
2022/06/03 11:07:22;;;;;;;2.50;1.30;;;;;;;;;;5023870;28;20049;-68
2022/06/03 11:09:54;;;;;;;2.70;1.13;;;;;;;;;;5037144;28;20046;-68
2022/06/03 11:12:24;;;;;;;1.05;0.85;;;;;;;;;;5023089;28;20149;-67
2022/06/03 11:14:52;;;;;;;2.67;1.10;;;;;;;;;;5018743;28;20053;-67
2022/06/03 11:17:19;;;;;;;2.60;1.00;;;;;;;;;;5025219;28;20057;-67
2022/06/03 11:19:52;;;;;;;2.53;1.17;;;;;;;;;;5018875;28;20053;-68
2022/06/03 11:22:27;;;;;;;2.50;1.08;;;;;;;;;;5022797;28;20106;-69
2022/06/03 11:24:56;;;;;;;1.25;1.10;;;;;;;;;;5015767;28;20049;-69
2022/06/03 11:27:22;;;;;;;;;;;;;;;;;;5026706;28;20055;-67
2022/06/03 11:29:50;;;;;;;2.95;1.08;;;;;;;;;;5017723;28;20032;-67
2022/06/03 11:32:18;;;;;;;2.30;1.27;;;;;;;;;;5022880;28;20111;-67
2022/06/03 11:34:46;;;;;;;;;;;;;;;;;;5018682;28;20379;-67
2022/06/03 11:37:16;;;;;;;4.63;1.20;;;;;;;;;;5024715;28;19929;-68
2022/06/03 11:39:45;;;;;;;2.65;1.10;;;;;;;;;;5037060;28;20049;-67
2022/06/03 11:42:16;;;;;;;1.65;1.10;;;;;;;;;;5026004;28;20057;-66
2022/06/03 11:44:44;;;;;;;1.95;1.20;;;;;;;;;;5019740;28;20045;-66
2022/06/03 11:47:11;;;;;;;;;;;;;;;;;;5024007;28;20064;-66
2022/06/03 11:49:39;;;;;;;3.17;1.55;;;;;;;;;;5019865;28;19921;-66
2022/06/03 11:52:05;;;;;;;3.78;1.30;;;;;;;;;;5024531;28;20053;-67
2022/06/03 11:54:33;;;;;;;3.13;1.20;;;;;;;;;;5024412;28;20115;-68
2022/06/03 11:57:00;;;;;;;1.93;1.10;;;;;;;;;;5018705;28;20054;-69
2022/06/03 11:59:31;;;;;;;4.93;1.50;;;;;;;;;;5022866;28;20063;-67
2022/06/03 12:02:02;;;;;;;2.72;1.33;;;;;;;;;;5019312;28;20069;-67
2022/06/03 12:04:36;;;;;;;1.80;0.90;;;;;;;;;;5024131;28;20057;-66
2022/06/03 12:07:10;;;;;;;1.98;1.10;;;;;;;;;;5032753;28;20136;-67
2022/06/03 12:09:45;;;;;;;5.93;1.30;;;;;;;;;;5024194;28;20053;-67
2022/06/03 12:15:16;;;;;;;1.40;0.98;;;;;;;;;;5043431;28;20176;-66
2022/06/03 12:17:43;;;;;;;2.38;1.20;;;;;;;;;;5016454;28;20049;-67
2022/06/03 12:20:34;;;;;;;3.03;1.40;;;;;;;;;;5023761;28;20053;-67
2022/06/03 12:23:31;;;;;;;2.13;0.93;;;;;;;;;;5035301;28;20049;-67
2022/06/03 12:26:10;;;;;;;2.50;1.15;;;;;;;;;;5036204;28;20059;-66
2022/06/03 12:28:42;;;;;;;2.63;1.30;;;;;;;;;;5024273;28;20061;-67
2022/06/03 12:31:12;;;;;;;1.65;1.00;;;;;;;;;;5033990;28;20053;-67
2022/06/03 12:33:45;;;;;;;1.55;1.00;;;;;;;;;;5021840;28;20111;-67
2022/06/03 12:36:27;;;;;;;2.15;1.13;;;;;;;;;;5041544;28;20058;-67
2022/06/03 12:38:56;;;;;;;2.63;1.30;;;;;;;;;;5021863;28;20041;-67
2022/06/03 12:41:41;;;;;;;2.20;0.90;;;;;;;;;;5022267;28;20057;-67
2022/06/03 12:44:30;;;;;;;4.07;1.10;;;;;;;;;;5023352;28;20049;-67
2022/06/03 12:47:19;;;;;;;1.33;1.00;;;;;;;;;;5018104;28;20145;-67
2022/06/03 12:49:47;;;;;;;2.67;1.00;;;;;;;;;;5041800;28;20064;-67
2022/06/03 12:52:35;;;;;;;1.88;1.02;;;;;;;;;;5017887;28;20057;-67
2022/06/03 12:55:04;;;;;;;2.88;0.85;;;;;;;;;;5019403;28;20049;-67
2022/06/03 12:57:33;;;;;;;1.80;1.08;;;;;;;;;;5014300;28;20053;-67
2022/06/03 13:00:01;;;;;;;2.03;1.20;;;;;;;;;;5014027;28;20075;-67
2022/06/03 13:02:27;;;;;;;;;;;;;;;;;;5014780;28;20045;-67
2022/06/03 13:05:16;;;;;;;2.88;1.00;;;;;;;;;;5023176;28;19924;-67
2022/06/03 13:08:13;;;;;;;1.05;0.85;;;;;;;;;;5017076;28;20053;-67
2022/06/03 13:10:54;;;;;;;4.32;1.00;;;;;;;;;;4966191;28;20113;-67
2022/06/03 13:13:36;;;;;;;5.18;1.17;;;;;;;;;;4998826;28;20060;-68
2022/06/03 13:16:21;;;;;;;2.28;0.85;;;;;;;;;;5018619;28;20049;-67
2022/06/03 13:18:50;;;;;;;1.35;0.90;;;;;;;;;;5035693;28;20049;-68
2022/06/03 13:21:27;;;;;;;3.13;1.00;;;;;;;;;;5021680;28;20116;-68
2022/06/03 13:24:10;;;;;;;1.83;1.20;;;;;;;;;;5016191;28;20054;-68
2022/06/03 13:26:48;;;;;;;2.65;0.90;;;;;;;;;;5031671;28;20049;-68
2022/06/03 13:29:34;;;;;;;3.33;1.40;;;;;;;;;;5020158;28;20145;-69
2022/06/03 13:32:04;;;;;;;2.05;1.10;;;;;;;;;;5027606;28;20061;-69
2022/06/03 13:34:32;;;;;;;2.65;1.10;;;;;;;;;;5019712;28;20045;-69
2022/06/03 13:36:58;;;;;;;;;;;;;;;;;;5027638;28;20054;-69
2022/06/03 13:39:44;;;;;;;1.30;0.80;;;;;;;;;;5011985;28;19925;-68
2022/06/03 13:45:09;;;;;;;2.88;0.95;;;;;;;;;;4972897;28;20049;-70
2022/06/03 13:47:47;;;;;;;1.88;1.10;;;;;;;;;;5025842;28;20060;-70
2022/06/03 13:50:18;;;;;;;2.75;1.05;;;;;;;;;;5039645;28;20053;-69
2022/06/03 13:52:49;;;;;;;1.50;1.05;;;;;;;;;;5026774;28;20072;-69
2022/06/03 13:55:18;;;;;;;2.90;1.35;;;;;;;;;;5020327;28;20091;-70
2022/06/03 13:57:44;;;;;;;;;;;;;;;;;;5027126;28;20049;-69
2022/06/03 14:00:21;;;;;;;2.88;0.98;;;;;;;;;;5018746;28;19924;-69
2022/06/03 14:02:51;;;;;;;5.13;1.35;;;;;;;;;;5024856;28;20061;-69
2022/06/03 14:05:28;;;;;;;1.17;0.95;;;;;;;;;;5040556;28;20113;-70
2022/06/03 14:07:57;;;;;;;4.82;1.27;;;;;;;;;;5026499;28;20049;-69
2022/06/03 14:10:24;;;;;;;3.55;1.20;;;;;;;;;;5019102;28;20073;-69
2022/06/03 14:12:56;;;;;;;3.30;1.30;;;;;;;;;;5043526;28;20183;-70
2022/06/03 14:15:26;;;;;;;3.63;1.45;;;;;;;;;;5019072;28;20195;-71
2022/06/03 14:17:56;;;;;;;5.45;1.30;;;;;;;;;;5025457;28;20127;-70
2022/06/03 14:20:25;;;;;;;1.23;0.98;;;;;;;;;;5021270;28;20072;-69
2022/06/03 14:22:53;;;;;;;1.80;1.00;;;;;;;;;;5024040;28;20052;-68
2022/06/03 14:25:24;;;;;;;5.47;1.33;;;;;;;;;;5044524;28;20050;-69
2022/06/03 14:27:59;;;;;;;5.43;1.20;;;;;;;;;;5020375;28;20107;-68
2022/06/03 14:30:29;;;;;;;4.55;1.40;;;;;;;;;;5045287;28;20057;-68
2022/06/03 14:32:58;;;;;;;5.50;1.10;;;;;;;;;;5020429;28;20078;-69
2022/06/03 14:35:27;;;;;;;2.13;1.20;;;;;;;;;;5024613;28;20053;-69
2022/06/03 14:37:56;;;;;;;6.70;1.17;;;;;;;;;;5019708;28;20131;-69
2022/06/03 14:40:24;;;;;;;5.68;1.00;;;;;;;;;;5026749;28;20057;-68
2022/06/03 14:42:51;;;;;;;;;;;;;;;;;;5018608;28;20057;-69
2022/06/03 14:45:21;;;;;;;1.45;1.10;;;;;;;;;;5024450;28;19925;-69
2022/06/03 14:47:51;;;;;;;2.78;1.15;;;;;;;;;;5038386;28;20049;-68
2022/06/03 14:50:21;;;;;;;3.05;1.13;;;;;;;;;;5024110;28;20108;-69
2022/06/03 14:52:49;;;;;;;1.60;0.95;;;;;;;;;;5037631;28;20056;-69
2022/06/03 14:55:15;;;;;;;;;;;;;;;;;;5026655;28;20057;-69
2022/06/03 14:57:45;;;;;;;4.70;1.20;;;;;;;;;;5019544;28;19924;-68
2022/06/03 15:00:27;;;;;;;4.10;1.30;;;;;;;;;;5022622;28;20041;-69
2022/06/03 15:02:58;;;;;;;4.93;1.20;;;;;;;;;;5017308;28;20064;-68
2022/06/03 15:05:29;;;;;;;1.77;1.17;;;;;;;;;;5012219;28;20056;-68
2022/06/03 15:08:00;;;;;;;2.83;1.08;;;;;;;;;;5035719;28;20050;-68
2022/06/03 15:10:28;;;;;;;11.02;2.30;;;;;;;;;;5024786;28;20053;-68
2022/06/03 15:12:56;;;;;;;5.90;1.23;;;;;;;;;;5019972;28;20060;-68
2022/06/03 15:15:24;;;;;;;2.63;1.10;;;;;;;;;;5038050;28;20076;-68
2022/06/03 15:17:50;;;;;;;4.57;1.40;;;;;;;;;;5025379;28;20056;-68
2022/06/03 15:20:17;;;;;;;5.18;1.02;;;;;;;;;;5014026;28;20095;-68
2022/06/03 15:22:47;;;;;;;3.58;1.45;;;;;;;;;;5024950;28;20060;-68
2022/06/03 15:25:17;;;;;;;4.93;1.40;;;;;;;;;;5015967;28;20056;-68
2022/06/03 15:27:46;;;;;;;2.25;1.10;;;;;;;;;;5024457;28;20049;-68
2022/06/03 15:30:18;;;;;;;3.42;1.05;;;;;;;;;;5033788;28;20053;-68
2022/06/03 15:32:45;;;;;;;3.78;1.35;;;;;;;;;;5025466;28;20072;-68
2022/06/03 15:35:23;;;;;;;4.45;1.30;;;;;;;;;;5021875;28;20068;-69
2022/06/03 15:37:51;;;;;;;6.10;1.50;;;;;;;;;;5019760;28;20069;-68
2022/06/03 15:40:22;;;;;;;4.47;1.33;;;;;;;;;;5024095;28;20049;-68
2022/06/03 15:42:53;;;;;;;3.13;1.10;;;;;;;;;;5013503;28;20045;-68
2022/06/03 15:45:37;;;;;;;1.58;0.98;;;;;;;;;;5025254;28;20049;-68
2022/06/03 15:48:06;;;;;;;8.65;1.40;;;;;;;;;;5012607;28;20050;-68
2022/06/03 15:50:33;;;;;;;2.28;1.35;;;;;;;;;;5024517;28;20406;-68
2022/06/03 15:53:03;;;;;;;3.58;1.10;;;;;;;;;;5013347;28;20125;-70
2022/06/03 15:55:31;;;;;;;6.22;1.30;;;;;;;;;;5023547;28;20057;-69
2022/06/03 15:58:06;;;;;;;2.15;1.13;;;;;;;;;;5016148;28;20054;-69
2022/06/03 16:00:37;;;;;;;3.97;1.23;;;;;;;;;;5023245;28;20049;-69
2022/06/03 16:03:06;;;;;;;2.65;1.10;;;;;;;;;;5023418;28;20069;-69
2022/06/03 16:05:41;;;;;;;2.15;1.10;;;;;;;;;;5014554;28;20061;-68